createdAt,value
2019-03-21T00:01:28.127Z,6.62
2019-03-21T00:03:59.885Z,7.75
2019-03-21T00:06:29.403Z,5.55
2019-03-21T00:08:58.825Z,5.33
2019-03-21T00:12:03.847Z,5.80
2019-03-21T00:14:56.836Z,5.62
2019-03-21T00:17:32.086Z,6.37
2019-03-21T00:20:01.376Z,5.97
2019-03-21T00:22:30.676Z,5.80
2019-03-21T00:24:59.977Z,5.22
2019-03-21T00:27:29.338Z,9.35
2019-03-21T00:29:58.626Z,5.35
2019-03-21T00:32:27.916Z,4.72
2019-03-21T00:34:57.230Z,8.93
2019-03-21T00:37:26.528Z,5.58
2019-03-21T00:39:56.908Z,8.80
2019-03-21T00:42:26.508Z,5.67
2019-03-21T00:44:56.006Z,6.92
2019-03-21T00:47:25.290Z,5.20
2019-03-21T00:49:54.607Z,6.30
2019-03-21T00:52:24.155Z,6.42
2019-03-21T00:54:53.430Z,6.15
2019-03-21T00:57:22.748Z,5.42
2019-03-21T00:59:52.023Z,8.25
2019-03-21T01:02:21.590Z,5.72
2019-03-21T01:04:50.940Z,5.97
2019-03-21T01:07:20.328Z,5.80
2019-03-21T01:09:49.595Z,5.17
2019-03-21T01:12:19.208Z,7.10
2019-03-21T01:14:48.520Z,8.00
2019-03-21T01:17:18.026Z,6.00
2019-03-21T01:19:47.335Z,8.05
2019-03-21T01:22:16.852Z,5.20
2019-03-21T01:24:46.170Z,8.48
2019-03-21T01:27:15.512Z,7.28
2019-03-21T01:29:44.778Z,6.45
2019-03-21T01:32:14.169Z,5.08
2019-03-21T01:34:43.552Z,6.10
2019-03-21T01:37:13.058Z,6.33
2019-03-21T01:39:42.369Z,6.87
2019-03-21T01:42:11.909Z,5.25
2019-03-21T01:44:41.540Z,7.47
2019-03-21T01:47:11.167Z,5.10
2019-03-21T01:49:40.505Z,8.90
2019-03-21T01:52:10.178Z,6.58
2019-03-21T01:54:39.462Z,4.80
2019-03-21T01:57:08.785Z,6.50
2019-03-21T01:59:38.422Z,5.72
2019-03-21T02:02:07.894Z,8.33
2019-03-21T02:04:37.255Z,5.90
2019-03-21T02:07:06.658Z,6.17
2019-03-21T02:09:36.002Z,5.58
2019-03-21T02:12:05.290Z,4.90
2019-03-21T02:14:34.637Z,6.28
2019-03-21T02:17:04.088Z,6.42
2019-03-21T02:19:33.443Z,6.70
2019-03-21T02:22:03.002Z,8.45
2019-03-21T02:24:32.352Z,6.72
2019-03-21T02:27:01.662Z,9.45
2019-03-21T02:29:31.243Z,7.95
2019-03-21T02:32:00.780Z,5.85
2019-03-21T02:34:30.097Z,7.42
2019-03-21T02:36:59.729Z,7.42
2019-03-21T02:39:29.094Z,4.90
2019-03-21T02:41:58.656Z,6.08
2019-03-21T02:44:27.936Z,9.35
2019-03-21T02:46:57.256Z,8.18
2019-03-21T02:49:26.558Z,8.45
2019-03-21T02:51:55.848Z,5.97
2019-03-21T02:54:25.144Z,5.97
2019-03-21T02:56:54.592Z,10.70
2019-03-21T02:59:24.082Z,6.28
2019-03-21T03:01:53.493Z,4.72
2019-03-21T03:04:22.863Z,7.33
2019-03-21T03:06:52.264Z,6.10
2019-03-21T03:09:21.650Z,6.60
2019-03-21T03:11:50.987Z,7.35
2019-03-21T03:14:20.314Z,7.25
2019-03-21T03:16:49.691Z,5.10
2019-03-21T03:19:19.103Z,8.38
2019-03-21T03:21:48.662Z,6.47
2019-03-21T03:24:18.916Z,6.47
2019-03-21T03:26:48.421Z,7.97
2019-03-21T03:29:17.762Z,6.85
2019-03-21T03:31:47.139Z,6.78
2019-03-21T03:34:16.519Z,7.33
2019-03-21T03:36:45.863Z,6.33
2019-03-21T03:39:15.366Z,9.98
2019-03-21T03:41:44.949Z,7.00
2019-03-21T03:44:14.344Z,13.93
2019-03-21T03:46:43.719Z,7.30
2019-03-21T03:49:13.258Z,8.45
2019-03-21T03:51:42.587Z,5.85
2019-03-21T03:54:11.977Z,7.42
2019-03-21T03:56:41.524Z,7.00
2019-03-21T03:59:10.951Z,7.92
2019-03-21T04:01:40.302Z,6.37
2019-03-21T04:04:28.908Z,5.95
2019-03-21T04:06:58.277Z,5.40
2019-03-21T04:09:27.708Z,7.47
2019-03-21T04:11:57.156Z,7.12
2019-03-21T04:14:26.695Z,7.90
2019-03-21T04:16:55.971Z,8.78
2019-03-21T04:19:25.276Z,5.55
2019-03-21T04:21:54.826Z,7.97
2019-03-21T04:24:24.531Z,13.78
2019-03-21T04:26:54.205Z,9.25
2019-03-21T04:29:23.543Z,8.70
2019-03-21T04:31:52.852Z,10.70
2019-03-21T04:34:22.183Z,7.00
2019-03-21T04:36:51.758Z,8.20
2019-03-21T04:39:21.080Z,7.53
2019-03-21T04:41:50.374Z,9.98
2019-03-21T04:44:19.728Z,10.88
2019-03-21T04:46:49.136Z,8.03
2019-03-21T04:49:18.432Z,9.05
2019-03-21T04:51:47.787Z,6.83
2019-03-21T04:54:17.095Z,7.05
2019-03-21T04:56:46.403Z,6.47
2019-03-21T04:59:15.674Z,8.85
2019-03-21T05:01:44.959Z,7.67
2019-03-21T05:04:14.544Z,7.45
2019-03-21T05:06:43.890Z,6.25
2019-03-21T05:09:16.349Z,6.40
2019-03-21T05:11:45.689Z,6.60
2019-03-21T05:14:15.012Z,4.90
2019-03-21T05:16:44.293Z,6.28
2019-03-21T05:19:13.575Z,12.20
2019-03-21T05:21:42.875Z,5.60
2019-03-21T05:24:12.159Z,5.95
2019-03-21T05:26:41.483Z,7.80
2019-03-21T05:29:11.137Z,7.00
2019-03-21T05:31:40.466Z,5.65
2019-03-21T05:34:09.766Z,5.50
2019-03-21T05:36:39.382Z,6.25
2019-03-21T05:39:09.856Z,6.33
2019-03-21T05:41:39.180Z,6.22
2019-03-21T05:44:14.283Z,11.28
2019-03-21T05:46:45.019Z,10.25
2019-03-21T05:49:14.297Z,7.25
2019-03-21T05:51:43.601Z,6.92
2019-03-21T05:54:12.917Z,7.20
2019-03-21T05:56:42.435Z,7.22
2019-03-21T05:59:11.975Z,8.83
2019-03-21T06:01:41.291Z,7.62
2019-03-21T06:04:10.573Z,7.72
2019-03-21T06:07:00.782Z,7.10
2019-03-21T06:09:30.394Z,8.58
2019-03-21T06:11:59.744Z,10.15
2019-03-21T06:14:29.425Z,7.70
2019-03-21T06:16:58.698Z,8.78
2019-03-21T06:20:07.892Z,8.85
2019-03-21T06:23:15.411Z,7.15
2019-03-21T06:26:28.431Z,8.00
2019-03-21T06:28:58.411Z,7.85
2019-03-21T06:31:28.037Z,12.45
2019-03-21T06:33:57.443Z,8.98
2019-03-21T06:36:26.844Z,10.28
2019-03-21T06:38:56.241Z,9.58
2019-03-21T06:41:25.728Z,8.80
2019-03-21T06:43:55.126Z,9.35
2019-03-21T06:46:24.457Z,9.20
2019-03-21T06:48:53.948Z,9.03
2019-03-21T06:51:23.719Z,12.75
2019-03-21T06:53:53.010Z,10.88
2019-03-21T06:56:22.582Z,12.93
2019-03-21T06:58:52.700Z,10.88
2019-03-21T07:01:22.583Z,16.23
2019-03-21T07:03:52.285Z,15.83
2019-03-21T07:06:21.696Z,13.90
2019-03-21T07:08:51.291Z,14.78
2019-03-21T07:11:20.949Z,13.63
2019-03-21T07:13:50.292Z,13.63
2019-03-21T07:16:19.617Z,13.10
2019-03-21T07:18:48.902Z,11.73
2019-03-21T07:21:18.197Z,11.90
2019-03-21T07:23:47.860Z,13.70
2019-03-21T07:26:17.409Z,17.50
2019-03-21T07:28:46.711Z,12.27
2019-03-21T07:31:16.023Z,14.87
2019-03-21T07:33:45.296Z,13.37
2019-03-21T07:36:14.659Z,15.13
2019-03-21T07:38:43.987Z,13.80
2019-03-21T07:41:13.264Z,12.97
2019-03-21T07:43:42.519Z,14.00
2019-03-21T07:46:11.827Z,14.23
2019-03-21T07:48:41.201Z,15.47
2019-03-21T07:51:10.540Z,17.80
2019-03-21T07:53:39.899Z,11.60
2019-03-21T07:56:09.205Z,13.50
2019-03-21T07:58:38.807Z,12.10
2019-03-21T08:01:08.379Z,13.10
2019-03-21T08:03:37.967Z,18.00
2019-03-21T08:06:07.364Z,17.45
2019-03-21T08:08:36.738Z,17.73
2019-03-21T08:11:06.086Z,14.55
2019-03-21T08:13:35.691Z,16.90
2019-03-21T08:16:05.107Z,15.35
2019-03-21T08:18:34.709Z,15.30
2019-03-21T08:21:04.096Z,16.60
2019-03-21T08:23:33.430Z,18.32
2019-03-21T08:26:02.798Z,15.85
2019-03-21T08:28:32.098Z,14.78
2019-03-21T08:31:17.447Z,16.75
2019-03-21T08:33:46.935Z,16.23
2019-03-21T08:36:16.881Z,16.37
2019-03-21T08:38:46.149Z,16.63
2019-03-21T08:41:15.596Z,18.07
2019-03-21T08:43:45.102Z,15.10
2019-03-21T08:46:14.421Z,15.40
2019-03-21T08:48:43.891Z,16.27
2019-03-21T08:51:13.443Z,16.60
2019-03-21T08:53:42.909Z,16.03
2019-03-21T08:56:12.756Z,17.60
2019-03-21T08:58:42.052Z,15.63
2019-03-21T09:01:11.323Z,17.77
2019-03-21T09:03:40.885Z,19.63
2019-03-21T09:06:10.492Z,18.00
2019-03-21T09:08:39.866Z,19.20
2019-03-21T09:11:09.367Z,18.00
2019-03-21T09:13:39.006Z,16.43
2019-03-21T09:16:10.807Z,17.90
2019-03-21T09:18:39.402Z,18.63
2019-03-21T09:21:19.212Z,16.10
2019-03-21T09:23:40.115Z,18.30
2019-03-21T09:26:09.481Z,17.23
2019-03-21T09:28:38.868Z,14.90
2019-03-21T09:31:08.411Z,16.63
2019-03-21T09:33:37.934Z,16.27
2019-03-21T09:36:07.185Z,15.70
2019-03-21T09:38:36.693Z,16.17
2019-03-21T09:41:05.984Z,15.63
2019-03-21T09:43:35.748Z,16.53
2019-03-21T09:46:05.460Z,14.80
2019-03-21T09:48:34.782Z,16.00
2019-03-21T09:51:04.225Z,16.40
2019-03-21T09:53:33.567Z,15.00
2019-03-21T09:56:02.851Z,17.33
2019-03-21T09:58:32.102Z,15.23
2019-03-21T10:01:01.374Z,13.97
2019-03-21T10:03:49.729Z,14.30
2019-03-21T10:06:19.034Z,15.13
2019-03-21T10:08:48.321Z,15.67
2019-03-21T10:11:17.941Z,16.97
2019-03-21T10:13:47.245Z,15.73
2019-03-21T10:16:16.610Z,17.47
2019-03-21T10:18:45.987Z,16.17
2019-03-21T10:21:15.296Z,13.70
2019-03-21T10:23:44.640Z,14.30
2019-03-21T10:26:13.918Z,13.40
2019-03-21T10:28:43.446Z,12.07
2019-03-21T10:31:12.764Z,15.63
2019-03-21T10:33:42.045Z,13.50
2019-03-21T10:36:11.438Z,14.83
2019-03-21T10:38:40.747Z,14.23
2019-03-21T10:41:10.170Z,15.83
2019-03-21T10:43:39.485Z,12.80
2019-03-21T10:46:08.887Z,12.07
2019-03-21T10:48:38.316Z,13.10
2019-03-21T10:51:07.707Z,14.63
2019-03-21T10:53:37.282Z,15.73
2019-03-21T10:56:06.936Z,13.77
2019-03-21T10:58:36.226Z,11.83
2019-03-21T11:01:05.768Z,13.13
2019-03-21T11:03:35.177Z,14.67
2019-03-21T11:06:04.676Z,15.33
2019-03-21T11:08:34.314Z,14.67
2019-03-21T11:11:03.631Z,12.90
2019-03-21T11:13:33.276Z,15.33
2019-03-21T11:16:02.547Z,14.00
2019-03-21T11:18:36.299Z,8.70
2019-03-21T11:21:03.138Z,8.93
2019-03-21T11:23:32.784Z,8.67
2019-03-21T11:26:02.049Z,10.10
2019-03-21T11:28:31.452Z,8.43
2019-03-21T11:31:01.116Z,11.73
2019-03-21T11:33:30.702Z,11.53
2019-03-21T11:35:59.996Z,11.50
2019-03-21T11:38:29.335Z,9.87
2019-03-21T11:40:58.639Z,12.63
2019-03-21T11:43:28.191Z,10.33
2019-03-21T11:45:57.685Z,10.70
2019-03-21T11:48:27.267Z,8.83
2019-03-21T11:50:57.105Z,13.77
2019-03-21T11:53:26.735Z,9.50
2019-03-21T11:55:56.087Z,9.93
2019-03-21T11:58:25.417Z,10.10
2019-03-21T12:00:54.835Z,10.90
2019-03-21T12:03:24.547Z,10.73
2019-03-21T12:05:53.950Z,10.57
2019-03-21T12:08:23.237Z,9.83
2019-03-21T12:10:52.570Z,10.50
2019-03-21T12:13:21.881Z,12.07
2019-03-21T12:15:51.782Z,10.90
2019-03-21T12:18:21.096Z,11.50
2019-03-21T12:20:50.558Z,11.93
2019-03-21T12:23:19.941Z,11.20
2019-03-21T12:25:49.227Z,12.33
2019-03-21T12:28:18.786Z,12.90
2019-03-21T12:30:48.064Z,11.33
2019-03-21T12:33:17.359Z,11.50
2019-03-21T12:35:46.804Z,11.20
2019-03-21T12:38:16.127Z,10.37
2019-03-21T12:40:45.497Z,10.60
2019-03-21T12:43:14.862Z,11.20
2019-03-21T12:45:44.513Z,11.07
2019-03-21T12:48:13.855Z,9.63
2019-03-21T12:50:43.222Z,11.20
2019-03-21T12:53:12.524Z,10.33
2019-03-21T12:55:42.135Z,10.67
2019-03-21T12:58:11.472Z,11.43
2019-03-21T13:00:42.344Z,11.87
2019-03-21T13:03:12.241Z,11.40
2019-03-21T13:05:41.858Z,11.00
2019-03-21T13:08:11.241Z,10.33
2019-03-21T13:10:40.897Z,9.53
2019-03-21T13:13:10.342Z,10.10
2019-03-21T13:15:39.768Z,8.50
2019-03-21T13:18:09.515Z,11.50
2019-03-21T13:20:39.482Z,10.73
2019-03-21T13:23:09.224Z,12.80
2019-03-21T13:25:38.728Z,12.93
2019-03-21T13:28:08.514Z,11.10
2019-03-21T13:30:37.939Z,11.67
2019-03-21T13:33:07.572Z,12.53
2019-03-21T13:35:37.111Z,11.73
2019-03-21T13:38:07.291Z,11.80
2019-03-21T13:40:36.727Z,10.83
2019-03-21T13:43:06.347Z,12.57
2019-03-21T13:45:35.779Z,12.40
2019-03-21T13:48:05.975Z,11.03
2019-03-21T13:50:35.724Z,10.70
2019-03-21T13:53:17.882Z,9.13
2019-03-21T13:55:36.541Z,12.53
2019-03-21T13:58:05.967Z,12.40
2019-03-21T14:00:35.343Z,14.77
2019-03-21T14:03:04.716Z,12.97
2019-03-21T14:05:34.060Z,14.17
2019-03-21T14:08:03.919Z,11.87
2019-03-21T14:10:33.219Z,11.70
2019-03-21T14:13:02.610Z,10.43
2019-03-21T14:15:31.991Z,9.37
2019-03-21T14:18:01.511Z,10.40
2019-03-21T14:20:30.852Z,10.50
2019-03-21T14:23:00.151Z,9.70
2019-03-21T14:25:29.709Z,11.30
2019-03-21T14:27:59.009Z,12.73
2019-03-21T14:30:28.307Z,12.17
2019-03-21T14:32:57.647Z,15.17
2019-03-21T14:35:27.047Z,13.10
2019-03-21T14:37:56.408Z,14.37
2019-03-21T14:40:25.733Z,14.90
2019-03-21T14:42:55.722Z,13.20
2019-03-21T14:45:25.215Z,12.83
2019-03-21T14:47:54.579Z,12.47
2019-03-21T14:50:23.934Z,13.80
2019-03-21T14:52:53.285Z,12.60
2019-03-21T14:55:22.663Z,12.87
2019-03-21T14:57:51.966Z,14.27
2019-03-21T15:00:21.332Z,13.60
2019-03-21T15:02:50.780Z,16.53
2019-03-21T15:05:20.232Z,13.87
2019-03-21T15:07:49.815Z,13.62
2019-03-21T15:10:19.291Z,13.47
2019-03-21T15:12:48.876Z,13.28
2019-03-21T15:15:18.302Z,14.33
2019-03-21T15:17:47.724Z,11.55
2019-03-21T15:20:17.801Z,12.23
2019-03-21T15:22:47.246Z,11.85
2019-03-21T15:25:16.719Z,11.00
2019-03-21T15:27:46.092Z,14.47
2019-03-21T15:30:18.015Z,12.80
2019-03-21T15:32:50.578Z,13.22
2019-03-21T15:35:20.664Z,17.10
2019-03-21T15:37:50.227Z,13.88
2019-03-21T15:40:19.631Z,14.35
2019-03-21T15:42:49.276Z,12.30
2019-03-21T15:45:23.579Z,14.17
2019-03-21T15:47:50.132Z,12.50
2019-03-21T15:50:29.314Z,15.85
2019-03-21T15:52:59.109Z,15.32
2019-03-21T15:55:28.568Z,16.02
2019-03-21T15:57:57.931Z,16.52
2019-03-21T16:00:32.230Z,18.30
2019-03-21T16:03:01.586Z,15.83
2019-03-21T16:05:30.915Z,16.62
2019-03-21T16:08:00.495Z,15.00
2019-03-21T16:10:30.070Z,17.90
2019-03-21T16:12:59.525Z,16.48
2019-03-21T16:15:28.932Z,17.50
2019-03-21T16:17:58.625Z,17.00
2019-03-21T16:20:28.328Z,16.90
2019-03-21T16:22:58.019Z,17.90
2019-03-21T16:25:27.362Z,18.85
2019-03-21T16:27:56.735Z,17.17
2019-03-21T16:30:26.113Z,18.15
2019-03-21T16:32:55.467Z,17.35
2019-03-21T16:35:25.173Z,14.83
2019-03-21T16:37:54.609Z,16.93
2019-03-21T16:40:24.737Z,16.25
2019-03-21T16:42:54.265Z,18.25
2019-03-21T16:45:23.701Z,18.50
2019-03-21T16:47:53.275Z,18.35
2019-03-21T16:50:22.939Z,17.87
2019-03-21T16:52:52.348Z,16.27
2019-03-21T16:55:21.652Z,15.83
2019-03-21T16:57:51.342Z,17.57
2019-03-21T17:00:20.903Z,17.85
2019-03-21T17:02:50.403Z,17.70
2019-03-21T17:05:22.168Z,17.82
2019-03-21T17:07:50.825Z,16.27
2019-03-21T17:10:20.185Z,16.20
2019-03-21T17:12:49.998Z,14.98
2019-03-21T17:15:19.475Z,15.75
2019-03-21T17:17:49.097Z,17.48
2019-03-21T17:20:19.734Z,15.45
2019-03-21T17:22:49.271Z,16.20
2019-03-21T17:25:18.720Z,15.30
2019-03-21T17:27:48.079Z,17.12
2019-03-21T17:30:18.118Z,18.35
2019-03-21T17:32:47.640Z,17.60
2019-03-21T17:35:17.042Z,17.90
2019-03-21T17:37:46.432Z,16.32
2019-03-21T17:40:16.274Z,15.35
2019-03-21T17:42:45.663Z,17.92
2019-03-21T17:45:15.642Z,18.15
2019-03-21T17:47:45.094Z,19.70
2019-03-21T17:50:14.848Z,21.77
2019-03-21T17:52:44.259Z,19.30
2019-03-21T17:55:13.810Z,18.02
2019-03-21T17:57:43.581Z,20.55
2019-03-21T18:00:17.226Z,16.82
2019-03-21T18:02:48.329Z,16.87
2019-03-21T18:05:17.650Z,17.00
2019-03-21T18:07:47.340Z,17.90
2019-03-21T18:10:27.974Z,17.12
2019-03-21T18:12:57.533Z,15.43
2019-03-21T18:15:27.061Z,18.10
2019-03-21T18:17:56.611Z,15.32
2019-03-21T18:20:26.107Z,14.45
2019-03-21T18:22:55.446Z,13.88
2019-03-21T18:25:25.107Z,18.98
2019-03-21T18:27:54.491Z,14.30
2019-03-21T18:30:23.994Z,14.68
2019-03-21T18:32:53.627Z,12.80
2019-03-21T18:35:23.553Z,10.50
2019-03-21T18:37:53.368Z,12.25
2019-03-21T18:40:23.051Z,13.90
2019-03-21T18:42:52.370Z,11.80
2019-03-21T18:45:21.892Z,11.30
2019-03-21T18:47:51.198Z,14.10
2019-03-21T18:50:20.888Z,14.10
2019-03-21T18:52:51.104Z,11.88
2019-03-21T18:55:20.544Z,12.68
2019-03-21T18:57:49.906Z,13.38
2019-03-21T19:00:20.475Z,13.22
2019-03-21T19:02:49.815Z,12.95
2019-03-21T19:05:19.434Z,11.93
2019-03-21T19:07:48.771Z,12.93
2019-03-21T19:10:18.123Z,13.35
2019-03-21T19:12:47.520Z,13.65
2019-03-21T19:15:16.912Z,17.80
2019-03-21T19:17:46.338Z,13.80
2019-03-21T19:20:16.305Z,11.90
2019-03-21T19:22:45.706Z,12.33
2019-03-21T19:25:19.063Z,12.65
2019-03-21T19:27:47.221Z,11.30
2019-03-21T19:30:16.972Z,13.40
2019-03-21T19:32:46.551Z,11.93
2019-03-21T19:35:16.141Z,11.10
2019-03-21T19:37:45.440Z,9.23
2019-03-21T19:40:15.994Z,12.33
2019-03-21T19:42:45.480Z,10.80
2019-03-21T19:45:15.131Z,10.95
2019-03-21T19:47:44.659Z,10.60
2019-03-21T19:50:14.339Z,12.18
2019-03-21T19:52:43.758Z,11.22
2019-03-21T19:55:13.390Z,11.03
2019-03-21T19:57:42.780Z,12.00
2019-03-21T20:00:14.711Z,11.95
2019-03-21T20:02:44.207Z,14.43
2019-03-21T20:05:14.416Z,10.82
2019-03-21T20:07:43.927Z,10.32
2019-03-21T20:10:14.234Z,12.98
2019-03-21T20:12:43.540Z,14.85
2019-03-21T20:15:13.696Z,12.00
2019-03-21T20:17:43.165Z,13.60
2019-03-21T20:20:13.064Z,12.70
2019-03-21T20:22:42.619Z,13.58
2019-03-21T20:25:12.299Z,12.00
2019-03-21T20:27:41.638Z,13.88
2019-03-21T20:30:13.283Z,14.13
2019-03-21T20:32:42.602Z,10.70
2019-03-21T20:35:12.067Z,9.90
2019-03-21T20:37:41.918Z,10.58
2019-03-21T20:40:11.992Z,11.30
2019-03-21T20:42:41.319Z,12.03
2019-03-21T20:45:12.712Z,11.15
2019-03-21T20:47:42.637Z,13.03
2019-03-21T20:50:12.143Z,12.55
2019-03-21T20:52:41.751Z,15.28
2019-03-21T20:55:11.917Z,11.25
2019-03-21T20:57:41.393Z,15.13
2019-03-21T21:00:13.832Z,13.68
2019-03-21T21:02:43.171Z,13.48
2019-03-21T21:05:13.203Z,15.20
2019-03-21T21:07:42.854Z,15.18
2019-03-21T21:10:12.555Z,11.97
2019-03-21T21:12:41.920Z,11.93
2019-03-21T21:15:11.746Z,11.50
2019-03-21T21:17:43.049Z,17.50
2019-03-21T21:20:12.595Z,12.43
2019-03-21T21:22:41.896Z,15.05
2019-03-21T21:25:11.607Z,12.10
2019-03-21T21:27:49.191Z,13.22
2019-03-21T21:30:13.270Z,17.75
2019-03-21T21:32:42.609Z,15.63
2019-03-21T21:35:12.254Z,14.28
2019-03-21T21:37:41.675Z,12.82
2019-03-21T21:40:11.431Z,85.20
2019-03-21T21:42:40.775Z,50.98
2019-03-21T21:45:10.453Z,51.83
2019-03-21T21:47:40.385Z,27.50
2019-03-21T21:50:10.935Z,17.92
2019-03-21T21:52:42.280Z,21.48
2019-03-21T21:55:11.853Z,14.80
2019-03-21T21:57:41.209Z,14.70
2019-03-21T22:00:12.618Z,15.53
2019-03-21T22:02:42.185Z,15.88
2019-03-21T22:05:12.534Z,17.32
2019-03-21T22:08:01.444Z,15.80
2019-03-21T22:10:30.900Z,15.88
2019-03-21T22:13:00.273Z,17.20
2019-03-21T22:15:29.674Z,15.72
2019-03-21T22:17:59.288Z,15.70
2019-03-21T22:20:28.947Z,16.30
2019-03-21T22:22:58.685Z,14.43
2019-03-21T22:25:28.052Z,16.77
2019-03-21T22:27:57.823Z,20.23
2019-03-21T22:30:27.339Z,23.05
2019-03-21T22:32:56.958Z,19.85
2019-03-21T22:35:26.375Z,18.48
2019-03-21T22:37:55.846Z,17.80
2019-03-21T22:40:25.229Z,16.97
2019-03-21T22:42:54.752Z,18.60
2019-03-21T22:45:24.062Z,22.85
2019-03-21T22:47:53.419Z,17.17
2019-03-21T22:50:24.059Z,18.32
2019-03-21T22:52:53.510Z,22.93
2019-03-21T22:55:23.188Z,23.35
2019-03-21T22:57:52.606Z,21.30
2019-03-21T23:00:24.483Z,24.40
2019-03-21T23:02:53.821Z,19.87
2019-03-21T23:05:23.306Z,19.45
2019-03-21T23:07:53.011Z,19.67
2019-03-21T23:10:22.403Z,20.90
2019-03-21T23:12:51.779Z,20.88
2019-03-21T23:15:21.247Z,17.65
2019-03-21T23:17:50.607Z,21.05
2019-03-21T23:20:20.008Z,19.62
2019-03-21T23:22:49.441Z,23.15
2019-03-21T23:25:18.792Z,26.20
2019-03-21T23:27:48.219Z,19.25
2019-03-21T23:30:17.838Z,18.32
2019-03-21T23:32:47.523Z,20.32
2019-03-21T23:35:17.504Z,21.42
2019-03-21T23:37:46.875Z,19.57
2019-03-21T23:40:16.618Z,20.27
2019-03-21T23:42:46.156Z,24.00
2019-03-21T23:45:15.843Z,18.98
2019-03-21T23:47:45.360Z,19.17
2019-03-21T23:50:15.768Z,24.98
2019-03-21T23:52:45.250Z,18.10
2019-03-21T23:55:14.801Z,17.82
2019-03-21T23:57:44.198Z,17.45
